Time;durP1;ratioP1;P1;durP2;ratioP2;P2;SDS_P1;SDS_P2;PMS_P1;PMS_P2;Temp;Humidity;BMP_temperature;BMP_pressure;BME280_temperature;BME280_humidity;BME280_pressure;Samples;Min_cycle;Max_cycle;Signal;HPM_P1;HPM_P2
2023/01/04 00:02:23;;;;;;;17.83;5.40;;;3.60;99.90;;;;;;21249561;27;20046;-78
2023/01/04 00:12:23;;;;;;;22.05;7.07;;;3.60;99.90;;;;;;21250353;27;20039;-78
2023/01/04 00:22:24;;;;;;;19.45;5.43;;;3.60;99.90;;;;;;21249153;27;20094;-77
2023/01/04 00:32:25;;;;;;;19.77;6.20;;;3.70;99.90;;;;;;21227357;27;20075;-77
2023/01/04 00:42:27;;;;;;;17.50;6.15;;;3.80;99.90;;;;;;21256224;27;20039;-76
2023/01/04 00:52:28;;;;;;;21.90;6.75;;;3.80;99.90;;;;;;21248583;27;20035;-76
2023/01/04 01:02:29;;;;;;;22.80;6.88;;;3.90;99.90;;;;;;21243535;27;20043;-78
2023/01/04 01:12:32;;;;;;;22.75;6.63;;;3.90;99.90;;;;;;21261050;27;20078;-76
2023/01/04 01:22:35;;;;;;;19.42;6.78;;;4.00;99.90;;;;;;21259988;27;20043;-78
2023/01/04 01:32:37;;;;;;;16.80;5.10;;;4.00;99.90;;;;;;21257506;27;20035;-78
2023/01/04 01:42:38;;;;;;;14.23;4.93;;;4.10;99.90;;;;;;21256598;27;20050;-78
2023/01/04 01:52:40;;;;;;;15.05;5.18;;;4.10;99.90;;;;;;21256226;27;20075;-78
2023/01/04 02:03:02;;;;;;;15.48;6.18;;;4.20;99.90;;;;;;21255311;27;20066;-78
2023/01/04 02:13:12;;;;;;;16.25;5.97;;;4.30;99.90;;;;;;21254486;27;20043;-78
2023/01/04 02:23:40;;;;;;;13.20;5.40;;;4.30;99.90;;;;;;21253510;27;20031;-77
2023/01/04 02:33:41;;;;;;;14.43;6.50;;;4.30;99.90;;;;;;21252995;27;20062;-78
2023/01/04 02:54:39;;;;;;;23.60;6.82;;;4.40;99.90;;;;;;21251579;27;20035;-77
2023/01/04 03:15:26;;;;;;;17.35;6.75;;;4.30;99.90;;;;;;21249802;27;20054;-77
2023/01/04 03:36:10;;;;;;;38.10;5.65;;;4.30;99.90;;;;;;21333090;27;20393;-78
2023/01/04 03:56:46;;;;;;;73.60;6.72;;;4.10;99.90;;;;;;21332185;27;20094;-78
2023/01/04 04:17:06;;;;;;;74.30;8.13;;;3.40;99.90;;;;;;21330256;27;20267;-77
2023/01/04 04:27:07;;;;;;;98.15;7.40;;;3.40;99.90;;;;;;21329851;27;20118;-77
2023/01/04 04:37:08;;;;;;;52.80;7.10;;;3.20;99.90;;;;;;21310792;27;20034;-78
2023/01/04 04:47:09;;;;;;;22.67;5.95;;;3.00;99.90;;;;;;21329293;27;20064;-77
2023/01/04 04:57:10;;;;;;;95.47;10.68;;;3.10;99.90;;;;;;21326799;27;20509;-78
2023/01/04 05:07:11;;;;;;;37.95;7.97;;;3.20;99.90;;;;;;21219498;28;20061;-78
2023/01/04 05:17:12;;;;;;;104.35;9.18;;;3.20;99.90;;;;;;21074514;28;20490;-79
2023/01/04 05:27:12;;;;;;;121.93;9.82;;;3.30;99.90;;;;;;21086139;28;20040;-77
2023/01/04 05:37:15;;;;;;;194.30;13.55;;;3.50;99.90;;;;;;21091113;28;20040;-76
2023/01/04 05:47:16;;;;;;;314.33;18.33;;;3.50;99.90;;;;;;21089474;28;20032;-78
2023/01/04 05:57:17;;;;;;;23.30;7.40;;;3.60;99.90;;;;;;21090778;28;20038;-77
2023/01/04 06:07:18;;;;;;;52.40;8.38;;;3.60;99.90;;;;;;21088208;28;20044;-78
2023/01/04 06:17:19;;;;;;;176.85;10.27;;;3.70;99.90;;;;;;21087779;28;20718;-79
2023/01/04 06:27:20;;;;;;;155.93;13.68;;;3.30;99.90;;;;;;21088657;28;20053;-79
2023/01/04 06:37:21;;;;;;;24.98;7.35;;;3.10;99.90;;;;;;21087621;28;20441;-78
2023/01/04 06:47:25;;;;;;;105.57;10.55;;;3.20;99.90;;;;;;21089096;28;20036;-79
2023/01/04 06:57:26;;;;;;;28.45;7.38;;;3.20;99.90;;;;;;21068623;28;20036;-78
2023/01/04 07:07:27;;;;;;;18.63;6.68;;;3.00;99.90;;;;;;21096837;27;20043;-79
2023/01/04 07:17:28;;;;;;;19.00;5.78;;;2.90;99.90;;;;;;21259607;27;20046;-80
2023/01/04 07:27:29;;;;;;;13.73;5.10;;;3.10;99.90;;;;;;21246381;27;20054;-76
2023/01/04 07:37:31;;;;;;;12.57;4.82;;;3.20;99.90;;;;;;21232413;27;20043;-78
2023/01/04 07:47:32;;;;;;;12.48;5.10;;;3.10;99.90;;;;;;21213340;27;20055;-77
2023/01/04 07:57:33;;;;;;;17.55;6.32;;;3.20;99.90;;;;;;21231277;27;20148;-76
2023/01/04 08:07:34;;;;;;;24.77;8.45;;;3.20;99.90;;;;;;21231815;27;20035;-80
2023/01/04 08:17:35;;;;;;;13.35;6.45;;;4.00;99.90;;;;;;21219761;27;20135;-79
2023/01/04 08:27:37;;;;;;;13.18;6.07;;;4.00;99.90;;;;;;21249527;27;20086;-77
2023/01/04 08:37:38;;;;;;;12.15;5.63;;;4.30;99.90;;;;;;21247385;27;20550;-78
2023/01/04 08:47:39;;;;;;;;;;;4.30;99.90;;;;;;21209022;28;20076;-79
2023/01/04 08:57:40;;;;;;;23.37;9.67;;;4.40;99.90;;;;;;21246505;28;19907;-79
2023/01/04 09:07:43;;;;;;;11.07;5.70;;;4.60;99.90;;;;;;21261728;27;20298;-78
2023/01/04 09:17:43;;;;;;;14.93;7.70;;;4.90;99.90;;;;;;21267298;27;20047;-79
2023/01/04 09:27:45;;;;;;;19.25;9.05;;;5.00;99.90;;;;;;21267784;27;20042;-78
2023/01/04 09:37:46;;;;;;;;;;;5.10;99.90;;;;;;21231831;27;20035;-79
2023/01/04 09:48:14;;;;;;;23.10;9.47;;;5.10;99.90;;;;;;21258871;27;20426;-77
2023/01/04 09:58:21;;;;;;;27.20;12.15;;;5.20;99.90;;;;;;20911940;28;20033;-79
2023/01/04 10:08:22;;;;;;;27.33;11.57;;;5.40;99.90;;;;;;20828786;28;20156;-78
2023/01/04 10:18:42;;;;;;;27.45;12.63;;;5.70;99.90;;;;;;20827526;28;20417;-79
2023/01/04 10:28:45;;;;;;;39.72;14.65;;;5.80;99.90;;;;;;20883890;28;20044;-78
2023/01/04 10:39:03;;;;;;;67.03;16.05;;;5.80;99.90;;;;;;21219806;27;20118;-78
2023/01/04 10:49:20;;;;;;;43.17;13.93;;;5.90;99.90;;;;;;21234614;27;20048;-78
2023/01/04 10:59:35;;;;;;;38.28;16.77;;;6.10;99.90;;;;;;21248041;27;20031;-76
2023/01/04 11:09:45;;;;;;;34.63;13.27;;;6.50;99.90;;;;;;21212403;27;20039;-78
2023/01/04 11:19:47;;;;;;;31.02;13.10;;;6.40;99.90;;;;;;21086655;28;20163;-78
2023/01/04 11:30:02;;;;;;;31.90;12.90;;;6.60;99.90;;;;;;21085827;28;20085;-78
2023/01/04 11:40:17;;;;;;;34.50;13.40;;;6.70;99.90;;;;;;21088975;28;20032;-77
2023/01/04 11:50:33;;;;;;;37.42;14.55;;;6.70;99.90;;;;;;21100616;28;20445;-78
2023/01/04 12:00:34;;;;;;;32.17;13.75;;;6.90;99.90;;;;;;21095143;28;20458;-78
2023/01/04 12:10:35;;;;;;;32.72;12.35;;;6.90;99.90;;;;;;21155729;27;20050;-79
2023/01/04 12:20:36;;;;;;;28.10;11.68;;;6.90;99.90;;;;;;21261691;27;20031;-78
2023/01/04 12:30:45;;;;;;;22.70;10.20;;;7.00;99.90;;;;;;21305098;27;20042;-78
2023/01/04 12:40:45;;;;;;;15.32;6.82;;;7.30;99.90;;;;;;21258887;27;20401;-78
2023/01/04 12:51:17;;;;;;;14.52;5.88;;;7.50;99.90;;;;;;21232527;28;20037;-78
2023/01/04 13:01:27;;;;;;;15.97;5.80;;;7.80;99.90;;;;;;21245582;27;20046;-77
2023/01/04 13:11:52;;;;;;;19.27;8.60;;;7.70;99.90;;;;;;21203155;27;20561;-78
2023/01/04 13:21:54;;;;;;;19.00;7.43;;;7.70;99.90;;;;;;21259395;27;20144;-78
2023/01/04 13:32:03;;;;;;;18.08;7.57;;;7.50;99.90;;;;;;21290937;27;20039;-78
2023/01/04 13:42:12;;;;;;;11.43;4.88;;;7.40;99.90;;;;;;21251352;28;20091;-78
2023/01/04 13:52:28;;;;;;;11.48;5.95;;;7.20;99.90;;;;;;21244873;27;20501;-78
2023/01/04 14:02:31;;;;;;;13.05;5.93;;;7.10;99.90;;;;;;21267421;27;20062;-78
2023/01/04 14:12:32;;;;;;;13.05;6.03;;;7.10;99.90;;;;;;21245893;27;20047;-78
2023/01/04 14:22:39;;;;;;;;;;;7.10;99.90;;;;;;21270979;27;20034;-78
2023/01/04 14:32:40;;;;;;;19.73;8.38;;;7.20;99.90;;;;;;21263185;27;20404;-78
2023/01/04 14:42:42;;;;;;;12.55;6.18;;;7.20;99.90;;;;;;21261661;27;20035;-78
2023/01/04 14:52:53;;;;;;;6.05;2.92;;;7.20;99.90;;;;;;21261960;27;20031;-79
2023/01/04 15:02:54;;;;;;;6.97;3.00;;;7.20;99.90;;;;;;21261965;27;20027;-78
2023/01/04 15:12:59;;;;;;;24.08;7.75;;;7.30;99.90;;;;;;21264049;27;20501;-79
2023/01/04 15:23:00;;;;;;;16.58;7.63;;;7.30;99.90;;;;;;21266857;27;20466;-78
2023/01/04 15:33:02;;;;;;;8.67;4.10;;;7.00;99.90;;;;;;21269089;27;20058;-79
2023/01/04 15:43:02;;;;;;;12.38;5.57;;;7.00;99.90;;;;;;21246217;27;20046;-79
2023/01/04 15:53:05;;;;;;;6.72;3.83;;;7.10;99.90;;;;;;21275215;27;20485;-77
2023/01/04 16:03:06;;;;;;;12.38;7.05;;;7.20;99.90;;;;;;21275544;27;20035;-79
2023/01/04 16:13:07;;;;;;;12.83;6.90;;;7.20;99.90;;;;;;21277996;27;20137;-79
2023/01/04 16:23:08;;;;;;;18.17;9.23;;;7.20;99.90;;;;;;21277036;27;20280;-78
2023/01/04 16:33:09;;;;;;;;;;;7.20;99.90;;;;;;21315601;27;20489;-78
2023/01/04 16:43:09;;;;;;;29.60;14.10;;;7.20;99.90;;;;;;21256054;27;19915;-78
2023/01/04 16:53:11;;;;;;;17.65;8.98;;;7.10;99.90;;;;;;21269836;27;20088;-78
2023/01/04 17:03:12;;;;;;;12.63;6.00;;;7.10;99.90;;;;;;21242999;28;20061;-79
2023/01/04 17:13:13;;;;;;;7.22;4.25;;;7.00;99.90;;;;;;21262019;28;20137;-77
2023/01/04 17:23:15;;;;;;;8.98;5.47;;;7.10;99.90;;;;;;21259209;27;20409;-78
2023/01/04 17:33:17;;;;;;;12.30;7.10;;;7.20;99.90;;;;;;21277536;27;20035;-79
2023/01/04 17:43:18;;;;;;;8.68;4.75;;;7.30;99.90;;;;;;21276261;27;20063;-78
2023/01/04 17:53:19;;;;;;;9.83;5.60;;;7.40;99.90;;;;;;21268741;27;20039;-77
2023/01/04 18:03:20;;;;;;;20.70;10.17;;;7.40;99.90;;;;;;21268562;27;20058;-78
2023/01/04 18:13:21;;;;;;;10.63;4.63;;;7.40;99.90;;;;;;21279917;27;20489;-78
2023/01/04 18:23:22;;;;;;;18.10;9.03;;;7.50;99.90;;;;;;21267241;27;20031;-79
2023/01/04 18:33:25;;;;;;;19.02;9.07;;;7.50;99.90;;;;;;21273049;27;20031;-78
2023/01/04 18:43:27;;;;;;;6.82;4.18;;;7.50;99.90;;;;;;21273933;27;20039;-77
2023/01/04 18:53:28;;;;;;;12.18;6.72;;;7.40;99.90;;;;;;21274852;27;20035;-77
2023/01/04 19:03:31;;;;;;;11.55;6.22;;;7.40;99.90;;;;;;21088275;28;20190;-78
2023/01/04 19:13:32;;;;;;;7.40;4.72;;;7.30;99.90;;;;;;21083373;28;20044;-78
2023/01/04 19:23:33;;;;;;;6.32;2.78;;;7.30;99.90;;;;;;21081308;28;20047;-77
2023/01/04 19:33:34;;;;;;;6.68;3.03;;;7.40;99.90;;;;;;21110374;27;20057;-79
2023/01/04 19:43:35;;;;;;;5.43;3.20;;;7.50;99.90;;;;;;21243712;27;20138;-78
2023/01/04 19:53:38;;;;;;;9.85;5.60;;;7.70;99.90;;;;;;21262519;27;20043;-78
2023/01/04 20:03:38;;;;;;;12.65;6.55;;;7.40;99.90;;;;;;21258263;27;20065;-77
2023/01/04 20:13:39;;;;;;;14.33;6.07;;;7.40;99.90;;;;;;21247407;27;20043;-78
2023/01/04 20:23:40;;;;;;;18.50;7.17;;;7.30;99.90;;;;;;21259593;27;20410;-77
2023/01/04 20:33:41;;;;;;;12.35;6.60;;;7.40;99.90;;;;;;21262877;27;20035;-78
2023/01/04 20:43:45;;;;;;;17.47;6.40;;;7.40;99.90;;;;;;21267718;27;20096;-78
2023/01/04 20:53:47;;;;;;;9.70;6.50;;;7.50;99.90;;;;;;21258806;27;20060;-78
2023/01/04 21:03:48;;;;;;;14.90;7.72;;;7.60;99.90;;;;;;21309414;27;20137;-78
2023/01/04 21:13:51;;;;;;;41.10;21.45;;;7.70;99.90;;;;;;21356924;27;20039;-78
2023/01/04 21:23:52;;;;;;;25.23;13.73;;;7.50;99.90;;;;;;21357347;27;20069;-77
2023/01/04 21:33:53;;;;;;;24.80;12.95;;;7.40;99.90;;;;;;21362529;27;20046;-78
2023/01/04 21:44:00;;;;;;;20.67;11.70;;;7.40;99.90;;;;;;21275035;27;20548;-78
2023/01/04 21:54:01;;;;;;;21.23;11.05;;;7.60;99.90;;;;;;21274355;27;20131;-78
2023/01/04 22:04:03;;;;;;;20.10;9.80;;;7.70;99.90;;;;;;21269514;27;20378;-78
2023/01/04 22:14:03;;;;;;;20.25;11.48;;;7.90;99.90;;;;;;21266685;27;20035;-78
2023/01/04 22:24:05;;;;;;;25.47;12.37;;;7.90;99.90;;;;;;21265476;27;20035;-77
2023/01/04 22:34:06;;;;;;;29.60;11.77;;;7.80;99.90;;;;;;21268391;27;20080;-77
2023/01/04 22:44:09;;;;;;;31.10;11.35;;;7.80;99.90;;;;;;21261483;27;20038;-78
2023/01/04 22:54:12;;;;;;;34.08;12.48;;;7.80;99.90;;;;;;21266294;27;20167;-78
2023/01/04 23:04:14;;;;;;;38.33;13.60;;;7.90;99.90;;;;;;21267457;27;20039;-78
2023/01/04 23:14:16;;;;;;;34.53;12.88;;;7.80;99.90;;;;;;21265304;27;20035;-78
2023/01/04 23:24:20;;;;;;;26.25;9.70;;;7.90;99.90;;;;;;21268079;27;20031;-78
2023/01/04 23:34:21;;;;;;;;;;;8.00;99.90;;;;;;21269431;27;20051;-78
2023/01/04 23:44:30;;;;;;;20.20;7.18;;;8.00;99.90;;;;;;21266781;27;19911;-78
2023/01/04 23:54:32;;;;;;;20.65;7.55;;;8.00;99.90;;;;;;21249639;27;20039;-79
